Terminal Aerodrome Forecast
Issued by NWS

Home | Current Version | Previous Version | Text Only | Print | Product List | Glossary On
Versions: 1 2 3 4 5 6 7 8 9 10 11 12 13
000
FTUS42 TJSJ 231100
TAFJBQ
TAF
TJBQ 231128Z 2312/2412 VRB03KT P6SM SCT030
     FM231400 03010KT P6SM SCT025
     FM232100 09010KT P6SM SCT030=

USA.gov is the U.S. government's official web portal to all federal, state and local government web resources and services.